createdAt,value
2022-10-19T00:01:15.875Z,1.50
2022-10-19T00:06:28.409Z,1.43
2022-10-19T00:08:59.026Z,1.60
2022-10-19T00:11:27.141Z,1.83
2022-10-19T00:13:55.962Z,1.55
2022-10-19T00:16:25.174Z,1.90
2022-10-19T00:18:52.620Z,1.33
2022-10-19T00:21:20.445Z,2.10
2022-10-19T00:23:48.801Z,1.70
2022-10-19T00:26:16.318Z,1.92
2022-10-19T00:28:45.386Z,1.80
2022-10-19T00:31:15.929Z,1.93
2022-10-19T00:33:46.987Z,1.40
2022-10-19T00:36:20.623Z,1.90
2022-10-19T00:38:48.689Z,2.00
2022-10-19T00:41:17.613Z,1.77
2022-10-19T00:44:06.630Z,1.37
2022-10-19T00:46:42.156Z,1.90
2022-10-19T00:49:11.712Z,1.65
2022-10-19T00:51:43.315Z,1.70
2022-10-19T00:54:11.869Z,1.90
2022-10-19T00:56:43.196Z,1.80
2022-10-19T00:59:12.578Z,1.70
2022-10-19T01:01:40.091Z,1.67
2022-10-19T01:04:07.531Z,1.90
2022-10-19T01:06:36.115Z,1.95
2022-10-19T01:09:03.666Z,2.20
2022-10-19T01:11:47.199Z,1.98
2022-10-19T01:14:23.987Z,2.10
2022-10-19T01:17:13.094Z,1.90
2022-10-19T01:20:02.036Z,2.05
2022-10-19T01:22:33.099Z,1.63
2022-10-19T01:25:46.212Z,1.60
2022-10-19T01:28:20.954Z,1.67
2022-10-19T01:31:21.811Z,2.13
2022-10-19T01:34:18.352Z,1.73
2022-10-19T01:36:53.896Z,2.20
2022-10-19T01:39:35.974Z,1.60
2022-10-19T01:42:15.555Z,1.73
2022-10-19T01:45:01.173Z,1.90
2022-10-19T01:47:54.241Z,1.83
2022-10-19T01:50:35.984Z,1.87
2022-10-19T01:53:10.009Z,1.80
2022-10-19T01:55:42.968Z,2.03
2022-10-19T01:58:13.933Z,2.00
2022-10-19T02:00:45.525Z,1.90
2022-10-19T02:03:14.184Z,2.13
2022-10-19T02:05:45.033Z,2.50
2022-10-19T02:08:23.021Z,2.30
2022-10-19T02:10:51.050Z,1.80
2022-10-19T02:13:21.191Z,2.28
2022-10-19T02:15:52.484Z,1.80
2022-10-19T02:18:25.865Z,2.15
2022-10-19T02:20:53.515Z,1.90
2022-10-19T02:23:24.428Z,2.28
2022-10-19T02:25:52.085Z,2.20
2022-10-19T02:28:19.657Z,1.80
2022-10-19T02:30:47.526Z,2.00
2022-10-19T02:33:15.405Z,2.05
2022-10-19T02:35:43.305Z,1.77
2022-10-19T02:38:16.159Z,2.08
2022-10-19T02:40:54.554Z,2.20
2022-10-19T02:43:24.855Z,2.00
2022-10-19T02:46:01.761Z,2.20
2022-10-19T02:48:33.227Z,1.90
2022-10-19T02:51:01.561Z,1.92
2022-10-19T02:53:29.301Z,1.97
2022-10-19T02:55:57.889Z,1.80
2022-10-19T02:58:25.353Z,2.40
2022-10-19T03:00:54.234Z,2.17
2022-10-19T03:03:22.136Z,2.33
2022-10-19T03:05:50.280Z,2.50
2022-10-19T03:08:19.012Z,2.05
2022-10-19T03:10:46.467Z,2.38
2022-10-19T03:13:13.898Z,2.45
2022-10-19T03:15:41.995Z,2.75
2022-10-19T03:18:09.483Z,2.50
2022-10-19T03:20:36.886Z,2.42
2022-10-19T03:23:05.629Z,2.75
2022-10-19T03:25:33.072Z,2.97
2022-10-19T03:28:00.771Z,2.38
2022-10-19T03:30:28.314Z,2.60
2022-10-19T03:32:55.819Z,2.75
2022-10-19T03:35:23.274Z,2.67
2022-10-19T03:37:50.704Z,2.83
2022-10-19T03:40:18.254Z,3.25
2022-10-19T03:42:46.831Z,2.90
2022-10-19T03:45:14.344Z,3.20
2022-10-19T03:47:41.928Z,3.28
2022-10-19T03:50:11.642Z,4.15
2022-10-19T03:52:39.107Z,3.65
2022-10-19T03:55:07.140Z,3.00
2022-10-19T03:57:34.841Z,3.33
2022-10-19T04:00:02.597Z,3.60
2022-10-19T04:02:39.589Z,3.75
2022-10-19T04:05:07.834Z,3.60
2022-10-19T04:07:35.509Z,3.77
2022-10-19T04:10:03.563Z,3.00
2022-10-19T04:12:31.206Z,2.85
2022-10-19T04:14:58.608Z,2.58
2022-10-19T04:17:26.365Z,3.08
2022-10-19T04:19:53.783Z,3.20
2022-10-19T04:22:21.315Z,2.97
2022-10-19T04:24:48.732Z,3.05
2022-10-19T04:27:16.691Z,3.13
2022-10-19T04:29:44.085Z,2.78
2022-10-19T04:32:12.825Z,3.00
2022-10-19T04:34:40.903Z,2.63
2022-10-19T04:37:08.517Z,3.10
2022-10-19T04:39:39.736Z,2.72
2022-10-19T04:42:07.303Z,3.00
2022-10-19T04:44:35.731Z,3.10
2022-10-19T04:47:04.870Z,2.50
2022-10-19T04:49:33.347Z,3.45
2022-10-19T04:52:01.306Z,2.45
2022-10-19T04:54:29.863Z,2.30
2022-10-19T04:56:57.706Z,2.73
2022-10-19T04:59:25.178Z,2.83
2022-10-19T05:01:52.662Z,3.00
2022-10-19T05:04:20.249Z,3.03
2022-10-19T05:06:48.191Z,2.63
2022-10-19T05:09:16.149Z,2.60
2022-10-19T05:11:43.854Z,2.17
2022-10-19T05:14:11.741Z,2.38
2022-10-19T05:16:39.361Z,2.53
2022-10-19T05:19:06.802Z,2.80
2022-10-19T05:21:35.245Z,3.03
2022-10-19T05:24:02.807Z,2.40
2022-10-19T05:26:32.828Z,2.83
2022-10-19T05:29:03.017Z,2.40
2022-10-19T05:31:34.927Z,2.75
2022-10-19T05:34:04.349Z,3.10
2022-10-19T05:36:37.366Z,2.60
2022-10-19T05:42:39.388Z,3.03
2022-10-19T05:48:36.879Z,3.17
2022-10-19T05:54:04.629Z,3.10
2022-10-19T05:57:05.007Z,2.83
2022-10-19T06:49:07.923Z,3.28
2022-10-19T06:51:38.262Z,3.40
2022-10-19T06:54:08.392Z,2.92
2022-10-19T06:56:36.843Z,3.63
2022-10-19T06:59:05.743Z,3.08
2022-10-19T07:01:33.421Z,3.60
2022-10-19T07:04:00.896Z,3.33
2022-10-19T07:06:29.358Z,3.10
2022-10-19T07:08:56.923Z,3.00
2022-10-19T07:11:26.049Z,3.35
2022-10-19T07:13:54.857Z,3.47
2022-10-19T07:16:22.913Z,3.63
2022-10-19T07:18:52.818Z,3.22
2022-10-19T07:21:23.352Z,3.38
2022-10-19T07:23:51.358Z,3.40
2022-10-19T07:26:23.793Z,3.17
2022-10-19T07:28:51.972Z,3.23
2022-10-19T07:31:23.019Z,3.30
2022-10-19T07:33:58.739Z,3.45
2022-10-19T07:36:28.414Z,3.35
2022-10-19T07:38:56.045Z,3.80
2022-10-19T07:41:25.507Z,3.10
2022-10-19T07:43:53.537Z,3.28
2022-10-19T07:46:25.642Z,3.33
2022-10-19T07:48:54.092Z,3.30
2022-10-19T07:51:22.964Z,2.92
2022-10-19T07:53:53.548Z,2.87
2022-10-19T07:56:25.237Z,3.00
2022-10-19T07:58:55.003Z,3.17
2022-10-19T08:01:41.868Z,3.25
2022-10-19T08:06:59.865Z,2.73
2022-10-19T08:09:51.613Z,3.20
2022-10-19T08:12:15.710Z,2.80
2022-10-19T08:14:43.593Z,3.10
2022-10-19T08:17:16.853Z,2.72
2022-10-19T08:19:45.683Z,3.20
2022-10-19T08:22:13.396Z,2.40
2022-10-19T08:24:41.103Z,2.45
2022-10-19T08:27:09.110Z,2.75
2022-10-19T08:29:37.536Z,2.45
2022-10-19T08:32:05.309Z,2.43
2022-10-19T08:34:34.878Z,2.60
2022-10-19T08:37:10.235Z,2.40
2022-10-19T08:39:48.500Z,2.97
2022-10-19T08:42:22.244Z,2.55
2022-10-19T08:45:24.123Z,2.30
2022-10-19T08:48:19.183Z,2.50
2022-10-19T08:50:48.301Z,2.22
2022-10-19T08:53:37.921Z,2.40
2022-10-19T08:56:38.892Z,2.47
2022-10-19T08:59:24.496Z,1.63
2022-10-19T09:02:26.383Z,1.98
2022-10-19T09:05:03.973Z,2.03
2022-10-19T09:07:45.739Z,2.00
2022-10-19T09:10:20.132Z,2.08
2022-10-19T09:13:29.220Z,2.20
2022-10-19T09:16:05.158Z,2.13
2022-10-19T09:18:36.555Z,2.10
2022-10-19T09:21:14.004Z,1.92
2022-10-19T09:24:16.358Z,2.42
2022-10-19T09:26:53.021Z,2.30
2022-10-19T09:29:39.335Z,2.35
2022-10-19T09:32:15.577Z,2.20
2022-10-19T09:34:55.535Z,2.10
2022-10-19T09:37:26.530Z,1.70
2022-10-19T09:39:56.325Z,1.90
2022-10-19T09:42:30.629Z,2.00
2022-10-19T09:45:14.077Z,2.10
2022-10-19T09:47:46.550Z,1.88
2022-10-19T09:50:25.670Z,2.08
2022-10-19T09:53:03.341Z,1.70
2022-10-19T09:55:43.358Z,1.83
2022-10-19T09:58:13.570Z,2.13
2022-10-19T10:00:54.734Z,1.52
2022-10-19T10:03:26.646Z,2.00
2022-10-19T10:05:58.088Z,1.93
2022-10-19T10:08:29.987Z,1.50
2022-10-19T10:11:24.459Z,2.10
2022-10-19T10:13:54.173Z,2.10
2022-10-19T10:16:24.144Z,1.80
2022-10-19T10:18:56.447Z,1.90
2022-10-19T10:21:27.557Z,1.85
2022-10-19T10:24:06.042Z,2.10
2022-10-19T10:26:51.963Z,2.00
2022-10-19T10:29:26.780Z,2.13
2022-10-19T10:32:18.337Z,1.60
2022-10-19T10:35:17.692Z,1.85
2022-10-19T10:37:47.986Z,1.88
2022-10-19T10:40:36.634Z,1.80
2022-10-19T10:43:13.652Z,1.50
2022-10-19T10:45:53.374Z,2.00
2022-10-19T10:48:44.553Z,1.65
2022-10-19T10:51:43.911Z,1.70
2022-10-19T10:54:25.108Z,1.40
2022-10-19T10:57:06.939Z,1.70
2022-10-19T10:59:43.190Z,1.37
2022-10-19T11:02:46.629Z,1.50
2022-10-19T11:05:23.085Z,1.38
2022-10-19T11:07:55.914Z,1.35
2022-10-19T11:10:27.005Z,1.23
2022-10-19T11:13:31.893Z,1.30
2022-10-19T11:16:18.362Z,1.80
2022-10-19T11:18:57.373Z,1.48
2022-10-19T11:21:45.701Z,1.70
2022-10-19T11:24:51.723Z,2.17
2022-10-19T11:27:24.615Z,2.60
2022-10-19T11:30:13.011Z,2.17
2022-10-19T11:33:04.170Z,2.70
2022-10-19T11:35:38.563Z,2.67
2022-10-19T11:38:25.085Z,2.92
2022-10-19T11:41:29.749Z,3.27
2022-10-19T11:44:38.852Z,2.85
2022-10-19T11:47:18.331Z,2.80
2022-10-19T11:50:24.356Z,3.60
2022-10-19T11:53:21.269Z,3.20
2022-10-19T11:56:03.845Z,2.50
2022-10-19T11:58:49.509Z,3.03
2022-10-19T12:01:29.925Z,2.13
2022-10-19T12:04:15.544Z,3.72
2022-10-19T12:07:04.600Z,2.20
2022-10-19T12:09:46.518Z,2.03
2022-10-19T12:12:37.935Z,1.85
2022-10-19T12:15:11.483Z,1.55
2022-10-19T12:17:41.966Z,1.40
2022-10-19T12:20:20.968Z,1.70
2022-10-19T12:22:50.183Z,1.50
2022-10-19T12:25:20.168Z,1.20
2022-10-19T12:27:50.199Z,1.63
2022-10-19T12:30:23.284Z,1.75
2022-10-19T12:33:12.981Z,1.67
2022-10-19T12:36:09.294Z,1.90
2022-10-19T12:38:59.712Z,1.58
2022-10-19T12:42:10.954Z,1.92
2022-10-19T12:44:58.717Z,1.60
2022-10-19T12:47:26.872Z,1.73
2022-10-19T12:49:56.480Z,1.53
2022-10-19T12:52:36.677Z,1.58
2022-10-19T12:55:35.106Z,1.40
2022-10-19T12:58:19.624Z,1.45
2022-10-19T13:01:00.470Z,1.63
2022-10-19T13:03:41.581Z,1.50
2022-10-19T13:06:20.876Z,1.90
2022-10-19T13:08:56.781Z,2.20
2022-10-19T13:11:24.493Z,1.40
2022-10-19T13:13:59.365Z,1.60
2022-10-19T13:16:29.776Z,1.13
2022-10-19T13:19:00.097Z,1.42
2022-10-19T13:21:46.186Z,1.63
2022-10-19T13:24:25.894Z,1.40
2022-10-19T13:27:02.559Z,1.65
2022-10-19T13:29:39.512Z,1.50
2022-10-19T13:32:31.736Z,1.42
2022-10-19T13:35:25.933Z,1.58
2022-10-19T13:38:18.607Z,1.33
2022-10-19T13:40:48.804Z,1.27
2022-10-19T13:43:20.881Z,1.20
2022-10-19T13:46:10.690Z,1.00
2022-10-19T13:49:27.739Z,1.65
2022-10-19T13:52:12.759Z,0.90
2022-10-19T13:54:58.678Z,1.10
2022-10-19T13:57:53.105Z,1.13
2022-10-19T14:00:23.305Z,1.55
2022-10-19T14:03:22.716Z,1.90
2022-10-19T14:06:27.511Z,2.30
2022-10-19T14:08:56.072Z,2.65
2022-10-19T14:11:37.020Z,2.00
2022-10-19T14:14:11.262Z,2.22
2022-10-19T14:17:01.178Z,1.60
2022-10-19T14:19:44.364Z,1.30
2022-10-19T14:22:27.231Z,1.42
2022-10-19T14:25:01.707Z,1.30
2022-10-19T14:27:31.783Z,1.40
2022-10-19T14:29:59.836Z,1.38
2022-10-19T14:32:30.317Z,0.98
2022-10-19T14:35:07.037Z,1.40
2022-10-19T14:37:36.780Z,0.87
2022-10-19T14:40:26.565Z,0.95
2022-10-19T14:42:57.467Z,1.50
2022-10-19T14:45:30.662Z,1.20
2022-10-19T14:48:18.497Z,1.55
2022-10-19T14:50:54.275Z,1.40
2022-10-19T14:53:24.516Z,1.70
2022-10-19T14:55:55.423Z,2.08
2022-10-19T14:58:25.323Z,1.48
2022-10-19T15:00:54.716Z,1.50
2022-10-19T15:03:27.377Z,1.40
2022-10-19T15:06:01.560Z,1.85
2022-10-19T15:08:37.535Z,1.25
2022-10-19T15:11:07.290Z,1.55
2022-10-19T15:13:42.041Z,1.70
2022-10-19T15:16:52.845Z,1.70
2022-10-19T15:22:19.220Z,2.08
2022-10-19T15:25:03.350Z,1.75
2022-10-19T15:27:42.436Z,1.60
2022-10-19T15:30:19.008Z,1.67
2022-10-19T15:32:52.009Z,2.20
2022-10-19T15:35:34.649Z,1.95
2022-10-19T15:38:11.041Z,1.65
2022-10-19T15:40:41.142Z,2.00
2022-10-19T15:43:36.181Z,1.67
2022-10-19T15:46:09.188Z,1.85
2022-10-19T15:48:42.392Z,1.92
2022-10-19T15:51:28.102Z,1.73
2022-10-19T15:54:01.463Z,2.67
2022-10-19T15:56:32.013Z,1.80
2022-10-19T15:59:01.517Z,2.00
2022-10-19T16:01:31.921Z,2.20
2022-10-19T16:04:00.467Z,1.60
2022-10-19T16:06:30.988Z,2.00
2022-10-19T16:08:59.978Z,1.60
2022-10-19T16:11:29.440Z,1.85
2022-10-19T16:13:57.242Z,1.98
2022-10-19T16:16:31.448Z,1.70
2022-10-19T16:19:00.332Z,1.60
2022-10-19T16:21:32.252Z,2.00
2022-10-19T16:24:02.830Z,2.00
2022-10-19T16:26:32.559Z,2.55
2022-10-19T16:29:01.800Z,1.88
2022-10-19T16:31:29.739Z,1.73
2022-10-19T16:33:57.652Z,2.27
2022-10-19T16:36:25.400Z,2.13
2022-10-19T16:38:53.224Z,1.77
2022-10-19T16:41:20.867Z,1.75
2022-10-19T16:43:48.914Z,2.10
2022-10-19T16:46:21.388Z,1.90
2022-10-19T16:48:50.279Z,1.92
2022-10-19T16:51:33.615Z,2.72
2022-10-19T16:54:12.676Z,2.92
2022-10-19T16:56:48.156Z,2.58
2022-10-19T16:59:19.628Z,2.40
2022-10-19T17:01:49.613Z,2.58
2022-10-19T17:04:21.527Z,2.15
2022-10-19T17:06:49.468Z,2.50
2022-10-19T17:12:06.698Z,2.13
2022-10-19T17:14:35.021Z,2.17
2022-10-19T17:17:02.824Z,1.95
2022-10-19T17:19:30.735Z,2.28
2022-10-19T17:21:59.535Z,1.83
2022-10-19T17:24:27.332Z,1.87
2022-10-19T17:26:56.017Z,1.80
2022-10-19T17:29:24.709Z,1.70
2022-10-19T17:31:52.189Z,1.45
2022-10-19T17:34:22.555Z,1.85
2022-10-19T17:36:50.175Z,1.90
2022-10-19T17:39:25.533Z,1.73
2022-10-19T17:42:02.065Z,1.95
2022-10-19T17:44:31.771Z,1.88
2022-10-19T17:47:00.611Z,2.00
2022-10-19T17:49:30.087Z,1.60
2022-10-19T17:51:58.019Z,1.70
2022-10-19T17:54:25.568Z,2.22
2022-10-19T17:56:53.152Z,1.92
2022-10-19T18:00:14.510Z,1.80
2022-10-19T18:02:40.891Z,2.03
2022-10-19T18:05:08.867Z,2.60
2022-10-19T18:07:36.748Z,2.28
2022-10-19T18:10:05.291Z,1.92
2022-10-19T18:12:32.806Z,2.03
2022-10-19T18:15:00.769Z,1.70
2022-10-19T18:17:28.302Z,1.80
2022-10-19T18:19:56.597Z,2.38
2022-10-19T18:22:24.076Z,1.90
2022-10-19T18:24:51.538Z,2.30
2022-10-19T18:27:21.802Z,2.00
2022-10-19T18:29:50.314Z,1.85
2022-10-19T18:32:17.795Z,1.95
2022-10-19T18:34:46.005Z,2.10
2022-10-19T18:37:13.508Z,1.80
2022-10-19T18:39:41.150Z,1.90
2022-10-19T18:42:08.770Z,2.00
2022-10-19T18:47:20.993Z,1.90
2022-10-19T18:50:00.096Z,2.20
2022-10-19T18:52:33.305Z,1.97
2022-10-19T18:55:01.213Z,1.63
2022-10-19T18:57:31.736Z,2.10
2022-10-19T18:59:59.474Z,2.50
2022-10-19T19:02:34.701Z,1.80
2022-10-19T19:05:10.331Z,1.93
2022-10-19T19:07:38.822Z,1.85
2022-10-19T19:10:06.719Z,1.80
2022-10-19T19:12:34.430Z,1.85
2022-10-19T19:15:02.417Z,1.90
2022-10-19T19:17:30.635Z,2.07
2022-10-19T19:20:01.060Z,1.83
2022-10-19T19:22:33.865Z,1.65
2022-10-19T19:25:01.826Z,1.60
2022-10-19T19:27:31.874Z,1.60
2022-10-19T19:30:00.844Z,1.63
2022-10-19T19:32:28.346Z,1.67
2022-10-19T19:34:55.807Z,2.20
2022-10-19T19:37:23.951Z,2.20
2022-10-19T19:39:51.423Z,2.13
2022-10-19T19:42:18.989Z,2.03
2022-10-19T19:44:46.505Z,2.67
2022-10-19T19:47:14.039Z,1.90
2022-10-19T19:49:41.483Z,2.33
2022-10-19T19:52:08.913Z,1.83
2022-10-19T19:54:36.435Z,1.80
2022-10-19T19:57:04.610Z,2.22
2022-10-19T19:59:32.046Z,1.98
2022-10-19T20:01:59.597Z,1.90
2022-10-19T20:04:28.238Z,1.83
2022-10-19T20:06:55.633Z,1.50
2022-10-19T20:09:23.076Z,1.42
2022-10-19T20:11:53.502Z,1.85
2022-10-19T20:14:21.028Z,1.48
2022-10-19T20:16:48.458Z,1.70
2022-10-19T20:19:16.263Z,1.57
2022-10-19T20:21:43.709Z,1.85
2022-10-19T20:24:11.299Z,1.90
2022-10-19T20:26:39.122Z,1.63
2022-10-19T20:29:07.022Z,1.90
2022-10-19T20:31:39.676Z,1.73
2022-10-19T20:34:11.440Z,1.80
2022-10-19T20:36:38.919Z,1.30
2022-10-19T20:39:06.493Z,1.58
2022-10-19T20:41:34.190Z,2.00
2022-10-19T20:44:02.233Z,1.97
2022-10-19T20:46:30.732Z,1.73
2022-10-19T20:49:00.586Z,2.40
2022-10-19T20:51:32.031Z,2.20
2022-10-19T20:54:02.413Z,2.40
2022-10-19T20:56:37.425Z,1.93
2022-10-19T20:59:07.238Z,2.00
2022-10-19T21:01:36.688Z,2.50
2022-10-19T21:04:06.770Z,1.90
2022-10-19T21:06:37.419Z,2.40
2022-10-19T21:09:05.086Z,2.50
2022-10-19T21:11:36.341Z,2.95
2022-10-19T21:14:06.971Z,3.17
2022-10-19T21:16:35.523Z,2.95
2022-10-19T21:19:07.582Z,3.20
2022-10-19T21:21:37.813Z,3.10
2022-10-19T21:24:27.189Z,3.13
2022-10-19T21:26:54.940Z,3.17
2022-10-19T21:29:22.828Z,3.25
2022-10-19T21:31:55.610Z,3.40
2022-10-19T21:34:25.867Z,3.73
2022-10-19T21:36:53.757Z,4.00
2022-10-19T21:39:21.999Z,4.00
2022-10-19T21:41:50.228Z,4.20
2022-10-19T21:44:21.839Z,4.10
2022-10-19T21:46:50.101Z,3.67
2022-10-19T21:49:17.942Z,3.67
2022-10-19T21:51:48.725Z,3.85
2022-10-19T21:54:19.581Z,3.65
2022-10-19T21:56:47.820Z,3.13
2022-10-19T21:59:15.661Z,3.17
2022-10-19T22:01:43.747Z,3.60
2022-10-19T22:04:16.805Z,3.33
2022-10-19T22:06:45.573Z,3.45
2022-10-19T22:09:20.921Z,3.10
2022-10-19T22:11:48.446Z,3.90
2022-10-19T22:14:17.249Z,3.15
2022-10-19T22:16:45.035Z,3.53
2022-10-19T22:19:13.049Z,2.85
2022-10-19T22:21:41.075Z,3.47
2022-10-19T22:24:13.167Z,2.60
2022-10-19T22:26:47.180Z,3.03
2022-10-19T22:29:14.886Z,3.00
2022-10-19T22:31:42.572Z,3.40
2022-10-19T22:34:14.295Z,3.13
2022-10-19T22:36:42.407Z,4.10
2022-10-19T22:39:09.886Z,3.25
2022-10-19T22:41:37.275Z,3.45
2022-10-19T22:44:04.837Z,3.10
2022-10-19T22:46:32.345Z,3.35
2022-10-19T22:48:59.938Z,3.53
2022-10-19T22:51:30.222Z,4.03
2022-10-19T22:53:57.671Z,4.03
2022-10-19T22:56:25.147Z,3.22
2022-10-19T22:58:52.832Z,3.90
2022-10-19T23:01:20.272Z,3.50
2022-10-19T23:03:47.700Z,3.38
2022-10-19T23:06:16.012Z,3.08
2022-10-19T23:08:44.990Z,2.80
2022-10-19T23:11:13.160Z,3.47
2022-10-19T23:13:40.866Z,2.90
2022-10-19T23:16:14.556Z,3.55
2022-10-19T23:18:42.084Z,3.92
2022-10-19T23:21:12.995Z,3.55
2022-10-19T23:23:41.613Z,3.58
2022-10-19T23:26:14.265Z,2.83
2022-10-19T23:28:43.365Z,3.58
2022-10-19T23:31:17.346Z,3.70
2022-10-19T23:33:45.563Z,3.42
2022-10-19T23:36:21.705Z,3.60
2022-10-19T23:38:51.523Z,3.37
2022-10-19T23:41:20.224Z,3.75
2022-10-19T23:43:48.121Z,3.65
2022-10-19T23:46:15.916Z,3.28
2022-10-19T23:48:43.610Z,3.63
2022-10-19T23:51:17.040Z,3.60
2022-10-19T23:53:47.787Z,4.00
2022-10-19T23:56:27.289Z,3.63
2022-10-19T23:58:55.671Z,4.05
